createdAt,value
2023-04-14T00:00:58.757Z,11.25
2023-04-14T00:03:26.318Z,10.57
2023-04-14T00:05:53.945Z,9.90
2023-04-14T00:08:21.223Z,10.93
2023-04-14T00:10:48.819Z,10.40
2023-04-14T00:13:16.298Z,10.38
2023-04-14T00:15:43.867Z,10.93
2023-04-14T00:18:11.221Z,10.85
2023-04-14T00:20:38.857Z,10.30
2023-04-14T00:23:06.253Z,11.25
2023-04-14T00:25:33.889Z,10.82
2023-04-14T00:28:01.357Z,11.27
2023-04-14T00:30:29.183Z,10.45
2023-04-14T00:32:56.754Z,11.10
2023-04-14T00:35:24.670Z,12.00
2023-04-14T00:37:52.045Z,11.50
2023-04-14T00:40:19.743Z,11.68
2023-04-14T00:42:47.742Z,12.85
2023-04-14T00:45:15.548Z,11.73
2023-04-14T00:47:48.013Z,12.13
2023-04-14T00:50:18.029Z,11.80
2023-04-14T00:52:49.250Z,13.43
2023-04-14T00:55:20.022Z,13.57
2023-04-14T00:57:48.103Z,13.00
2023-04-14T01:00:16.297Z,13.48
2023-04-14T01:02:43.775Z,13.73
2023-04-14T01:05:12.435Z,14.52
2023-04-14T01:07:40.841Z,15.07
2023-04-14T01:10:11.222Z,14.18
2023-04-14T01:12:56.918Z,14.95
2023-04-14T01:15:34.362Z,14.45
2023-04-14T01:18:31.017Z,15.27
2023-04-14T01:21:16.947Z,13.55
2023-04-14T01:24:06.581Z,13.70
2023-04-14T01:26:34.620Z,13.75
2023-04-14T01:29:34.269Z,14.05
2023-04-14T01:32:10.709Z,13.57
2023-04-14T01:34:46.171Z,12.82
2023-04-14T01:37:36.490Z,14.10
2023-04-14T01:40:11.434Z,14.07
2023-04-14T01:42:47.474Z,14.57
2023-04-14T01:45:23.070Z,15.38
2023-04-14T01:47:52.453Z,15.60
2023-04-14T01:50:22.383Z,15.43
2023-04-14T01:52:54.350Z,15.25
2023-04-14T01:55:26.557Z,15.70
2023-04-14T01:57:58.160Z,14.52
2023-04-14T02:00:26.583Z,16.17
2023-04-14T02:02:55.089Z,16.35
2023-04-14T02:05:23.938Z,15.77
2023-04-14T02:07:53.270Z,16.33
2023-04-14T02:10:21.840Z,16.25
2023-04-14T02:12:52.779Z,16.40
2023-04-14T02:15:22.508Z,16.33
2023-04-14T02:17:52.754Z,17.02
2023-04-14T02:20:21.973Z,16.58
2023-04-14T02:22:49.332Z,17.35
2023-04-14T02:25:17.120Z,17.58
2023-04-14T02:27:56.372Z,17.38
2023-04-14T02:30:30.848Z,17.27
2023-04-14T02:33:04.529Z,17.75
2023-04-14T02:35:40.027Z,17.55
2023-04-14T02:38:29.741Z,17.35
2023-04-14T02:40:59.342Z,17.83
2023-04-14T02:43:32.556Z,19.40
2023-04-14T02:46:05.557Z,19.58
2023-04-14T02:48:36.033Z,17.63
2023-04-14T02:51:06.075Z,19.43
2023-04-14T02:53:34.584Z,18.20
2023-04-14T02:56:19.548Z,18.60
2023-04-14T02:58:49.861Z,19.02
2023-04-14T03:01:19.670Z,19.35
2023-04-14T03:03:50.253Z,17.77
2023-04-14T03:06:18.061Z,18.45
2023-04-14T03:08:47.568Z,18.52
2023-04-14T03:11:18.865Z,18.15
2023-04-14T03:13:48.811Z,16.52
2023-04-14T03:16:20.412Z,17.52
2023-04-14T03:18:52.261Z,17.25
2023-04-14T03:21:21.354Z,16.35
2023-04-14T03:23:53.010Z,17.52
2023-04-14T03:26:23.473Z,17.58
2023-04-14T03:28:53.508Z,18.83
2023-04-14T03:31:29.723Z,17.48
2023-04-14T03:34:00.022Z,16.88
2023-04-14T03:36:36.178Z,16.80
2023-04-14T03:39:06.001Z,16.27
2023-04-14T03:41:39.768Z,18.20
2023-04-14T03:44:15.795Z,17.58
2023-04-14T03:46:46.864Z,17.50
2023-04-14T03:49:17.335Z,17.65
2023-04-14T03:51:51.930Z,16.55
2023-04-14T03:54:23.080Z,17.35
2023-04-14T03:59:21.836Z,17.02
2023-04-14T04:01:50.189Z,18.23
2023-04-14T04:04:18.821Z,15.95
2023-04-14T04:06:46.975Z,18.08
2023-04-14T04:09:15.920Z,18.35
2023-04-14T04:11:46.742Z,18.67
2023-04-14T04:14:16.556Z,17.65
2023-04-14T04:16:49.873Z,19.25
2023-04-14T04:19:23.084Z,17.85
2023-04-14T04:21:53.865Z,17.67
2023-04-14T04:24:23.300Z,16.25
2023-04-14T04:26:54.367Z,18.40
2023-04-14T04:29:23.717Z,20.33
2023-04-14T04:31:54.530Z,17.55
2023-04-14T04:36:54.547Z,17.70
2023-04-14T04:39:21.876Z,17.60
2023-04-14T04:41:52.002Z,18.92
2023-04-14T04:44:20.411Z,17.77
2023-04-14T04:46:56.216Z,18.08
2023-04-14T04:49:26.956Z,17.98
2023-04-14T04:51:57.105Z,17.98
2023-04-14T04:54:24.650Z,17.10
2023-04-14T04:56:52.376Z,17.27
2023-04-14T04:59:19.580Z,17.38
2023-04-14T05:01:47.211Z,18.08
2023-04-14T05:04:14.646Z,18.02
2023-04-14T05:06:42.190Z,17.95
2023-04-14T05:09:09.438Z,17.90
2023-04-14T05:11:36.986Z,17.10
2023-04-14T05:14:04.400Z,16.70
2023-04-14T05:16:32.188Z,16.58
2023-04-14T05:18:59.873Z,16.23
2023-04-14T05:21:27.530Z,17.98
2023-04-14T05:23:54.785Z,16.40
2023-04-14T05:28:53.212Z,13.80
2023-04-14T05:31:20.784Z,14.75
2023-04-14T05:33:47.957Z,15.38
2023-04-14T05:36:15.741Z,14.90
2023-04-14T05:38:43.174Z,14.57
2023-04-14T05:41:12.069Z,14.10
2023-04-14T05:43:39.405Z,15.57
2023-04-14T05:46:07.118Z,15.98
2023-04-14T05:48:36.145Z,16.30
2023-04-14T05:51:03.759Z,15.90
2023-04-14T05:53:31.089Z,18.25
2023-04-14T05:55:59.092Z,17.00
2023-04-14T05:58:26.903Z,15.68
2023-04-14T06:00:54.473Z,14.45
2023-04-14T06:03:21.877Z,15.05
2023-04-14T06:05:50.891Z,14.00
2023-04-14T06:08:19.309Z,13.38
2023-04-14T06:10:47.028Z,12.38
2023-04-14T06:13:15.225Z,12.00
2023-04-14T06:15:42.747Z,14.48
2023-04-14T06:18:09.968Z,13.25
2023-04-14T06:20:37.580Z,14.93
2023-04-14T06:23:05.647Z,13.70
2023-04-14T06:25:34.685Z,14.95
2023-04-14T06:28:04.967Z,13.75
2023-04-14T06:30:32.544Z,13.85
2023-04-14T06:33:04.401Z,13.00
2023-04-14T06:35:33.986Z,14.27
2023-04-14T06:38:02.558Z,12.88
2023-04-14T06:40:30.183Z,14.30
2023-04-14T06:42:57.584Z,13.07
2023-04-14T06:45:25.340Z,14.07
2023-04-14T06:47:52.631Z,14.57
2023-04-14T06:50:20.168Z,13.48
2023-04-14T06:52:47.368Z,13.13
2023-04-14T06:55:15.649Z,15.48
2023-04-14T06:57:42.881Z,13.73
2023-04-14T07:00:11.519Z,14.32
2023-04-14T07:02:39.221Z,14.65
2023-04-14T07:05:07.749Z,14.10
2023-04-14T07:07:36.322Z,14.95
2023-04-14T07:10:04.272Z,15.70
2023-04-14T07:12:31.646Z,15.52
2023-04-14T07:14:59.322Z,15.98
2023-04-14T07:17:26.819Z,16.63
2023-04-14T07:19:54.414Z,15.88
2023-04-14T07:22:21.603Z,16.30
2023-04-14T07:24:49.277Z,19.50
2023-04-14T07:27:16.556Z,18.65
2023-04-14T07:29:44.202Z,20.23
2023-04-14T07:32:13.463Z,21.77
2023-04-14T07:34:43.921Z,20.50
2023-04-14T07:37:11.634Z,22.70
2023-04-14T07:39:39.812Z,19.23
2023-04-14T07:42:07.368Z,21.60
2023-04-14T07:44:35.165Z,20.48
2023-04-14T07:47:02.492Z,21.67
2023-04-14T07:49:30.048Z,21.05
2023-04-14T07:51:57.488Z,20.35
2023-04-14T07:54:25.297Z,20.30
2023-04-14T07:56:52.555Z,20.80
2023-04-14T07:59:20.518Z,20.83
2023-04-14T08:01:48.607Z,20.55
2023-04-14T08:04:16.353Z,19.83
2023-04-14T08:06:43.581Z,18.73
2023-04-14T08:09:12.265Z,17.98
2023-04-14T08:11:39.568Z,16.42
2023-04-14T08:14:07.064Z,16.67
2023-04-14T08:16:36.919Z,15.75
2023-04-14T08:19:05.175Z,16.67
2023-04-14T08:21:33.292Z,15.90
2023-04-14T08:24:01.144Z,15.43
2023-04-14T08:26:28.343Z,15.88
2023-04-14T08:28:56.224Z,15.30
2023-04-14T08:31:25.069Z,16.05
2023-04-14T08:33:53.037Z,15.35
2023-04-14T08:36:21.145Z,14.50
2023-04-14T08:38:48.760Z,14.23
2023-04-14T08:41:20.684Z,14.98
2023-04-14T08:43:48.288Z,13.50
2023-04-14T08:46:16.934Z,12.88
2023-04-14T08:48:47.847Z,13.50
2023-04-14T08:51:33.468Z,12.77
2023-04-14T08:54:04.716Z,12.68
2023-04-14T08:56:37.176Z,12.07
2023-04-14T08:59:11.680Z,12.43
2023-04-14T09:01:39.690Z,12.07
2023-04-14T09:04:08.809Z,13.00
2023-04-14T09:06:36.602Z,13.45
2023-04-14T09:09:08.838Z,12.30
2023-04-14T09:11:36.586Z,12.07
2023-04-14T09:14:04.947Z,11.98
2023-04-14T09:16:33.550Z,10.45
2023-04-14T09:19:06.924Z,10.68
2023-04-14T09:21:51.608Z,11.35
2023-04-14T09:24:31.789Z,9.70
2023-04-14T09:27:07.855Z,10.02
2023-04-14T09:29:37.442Z,9.65
2023-04-14T09:32:06.876Z,9.65
2023-04-14T09:34:34.456Z,9.77
2023-04-14T09:37:09.828Z,9.32
2023-04-14T09:39:49.645Z,9.15
2023-04-14T09:42:18.205Z,8.98
2023-04-14T09:44:59.290Z,8.88
2023-04-14T09:47:26.614Z,8.68
2023-04-14T09:49:59.597Z,7.93
2023-04-14T09:52:56.672Z,8.23
2023-04-14T09:55:24.332Z,8.40
2023-04-14T09:57:51.988Z,8.98
2023-04-14T10:00:22.320Z,10.20
2023-04-14T10:02:56.205Z,9.73
2023-04-14T10:05:33.987Z,9.85
2023-04-14T10:08:06.010Z,8.95
2023-04-14T10:10:34.186Z,8.93
2023-04-14T10:13:02.279Z,8.82
2023-04-14T10:15:29.910Z,9.00
2023-04-14T10:17:57.395Z,9.07
2023-04-14T10:20:25.377Z,8.82
2023-04-14T10:22:54.919Z,8.80
2023-04-14T10:25:24.147Z,8.82
2023-04-14T10:27:51.754Z,9.15
2023-04-14T10:30:19.374Z,9.35
2023-04-14T10:32:48.044Z,10.40
2023-04-14T10:35:17.768Z,9.68
2023-04-14T10:37:52.145Z,9.57
2023-04-14T10:40:21.529Z,9.93
2023-04-14T10:42:54.907Z,11.75
2023-04-14T10:45:23.009Z,10.60
2023-04-14T10:47:51.283Z,9.50
2023-04-14T10:50:24.182Z,11.48
2023-04-14T10:52:56.073Z,11.68
2023-04-14T10:55:25.730Z,11.95
2023-04-14T10:57:54.708Z,12.15
2023-04-14T11:00:27.827Z,12.45
2023-04-14T11:03:03.011Z,11.48
2023-04-14T11:05:34.205Z,12.43
2023-04-14T11:08:11.996Z,12.00
2023-04-14T11:10:40.058Z,13.65
2023-04-14T11:13:12.240Z,13.10
2023-04-14T11:16:03.913Z,14.73
2023-04-14T11:18:32.392Z,14.32
2023-04-14T11:21:06.920Z,14.73
2023-04-14T11:23:35.896Z,14.85
2023-04-14T11:26:06.330Z,14.32
2023-04-14T11:28:36.248Z,14.93
2023-04-14T11:31:06.806Z,14.65
2023-04-14T11:33:37.330Z,14.27
2023-04-14T11:36:07.373Z,18.67
2023-04-14T11:38:36.232Z,17.90
2023-04-14T11:41:04.130Z,16.40
2023-04-14T11:43:31.649Z,16.55
2023-04-14T11:46:03.350Z,17.17
2023-04-14T11:48:30.760Z,14.38
2023-04-14T11:51:03.708Z,15.88
2023-04-14T11:53:32.427Z,16.70
2023-04-14T11:56:00.965Z,16.42
2023-04-14T11:58:29.068Z,16.30
2023-04-14T12:00:59.472Z,16.60
2023-04-14T12:03:31.967Z,14.93
2023-04-14T12:06:01.782Z,13.23
2023-04-14T12:08:33.484Z,13.73
2023-04-14T12:11:13.669Z,13.15
2023-04-14T12:13:42.166Z,12.35
2023-04-14T12:16:14.965Z,12.70
2023-04-14T12:18:43.294Z,12.45
2023-04-14T12:21:15.820Z,13.98
2023-04-14T12:23:48.603Z,13.10
2023-04-14T12:26:16.944Z,12.52
2023-04-14T12:28:45.068Z,13.13
2023-04-14T12:31:12.710Z,12.57
2023-04-14T12:33:40.136Z,12.88
2023-04-14T12:36:11.801Z,13.25
2023-04-14T12:38:39.741Z,14.75
2023-04-14T12:41:07.250Z,14.32
2023-04-14T12:46:08.220Z,13.50
2023-04-14T12:48:48.982Z,12.82
2023-04-14T12:51:18.876Z,9.90
2023-04-14T12:53:49.401Z,10.90
2023-04-14T12:56:23.811Z,10.73
2023-04-14T12:58:51.648Z,10.73
2023-04-14T13:01:20.937Z,10.85
2023-04-14T13:03:55.582Z,10.57
2023-04-14T13:06:25.027Z,11.45
2023-04-14T13:08:53.592Z,12.80
2023-04-14T13:11:23.466Z,12.57
2023-04-14T13:13:52.450Z,11.95
2023-04-14T13:16:20.485Z,11.40
2023-04-14T13:18:48.797Z,12.43
2023-04-14T13:21:17.187Z,11.00
2023-04-14T13:23:44.598Z,11.75
2023-04-14T13:26:13.423Z,10.52
2023-04-14T13:28:40.745Z,11.55
2023-04-14T13:31:13.099Z,12.00
2023-04-14T13:33:40.498Z,13.57
2023-04-14T13:36:08.262Z,12.15
2023-04-14T13:38:35.730Z,12.13
2023-04-14T13:41:03.331Z,12.40
2023-04-14T13:43:30.750Z,12.13
2023-04-14T13:45:59.127Z,13.88
2023-04-14T13:48:27.452Z,15.43
2023-04-14T13:50:55.998Z,14.15
2023-04-14T13:53:23.367Z,14.60
2023-04-14T13:55:51.362Z,14.93
2023-04-14T13:58:18.617Z,14.18
2023-04-14T14:00:46.523Z,14.18
2023-04-14T14:03:13.884Z,13.43
2023-04-14T14:05:41.480Z,13.98
2023-04-14T14:08:08.805Z,13.82
2023-04-14T14:10:36.904Z,14.13
2023-04-14T14:13:04.922Z,13.70
2023-04-14T14:15:32.583Z,13.20
2023-04-14T14:17:59.984Z,13.43
2023-04-14T14:20:27.716Z,13.45
2023-04-14T14:22:54.995Z,14.07
2023-04-14T14:25:22.566Z,12.10
2023-04-14T14:27:51.963Z,12.27
2023-04-14T14:30:20.275Z,13.82
2023-04-14T14:32:47.698Z,13.90
2023-04-14T14:35:16.642Z,13.98
2023-04-14T14:37:45.799Z,13.00
2023-04-14T14:40:13.365Z,14.20
2023-04-14T14:42:40.562Z,14.73
2023-04-14T14:45:09.352Z,14.00
2023-04-14T14:47:37.333Z,13.82
2023-04-14T14:50:08.514Z,12.50
2023-04-14T14:52:36.510Z,14.88
2023-04-14T14:55:04.783Z,14.35
2023-04-14T14:57:32.337Z,13.45
2023-04-14T15:00:00.043Z,11.90
2023-04-14T15:02:27.617Z,13.07
2023-04-14T15:04:55.672Z,12.60
2023-04-14T15:07:23.059Z,11.48
2023-04-14T15:09:51.146Z,11.38
2023-04-14T15:12:19.359Z,11.02
2023-04-14T15:14:47.101Z,12.02
2023-04-14T15:17:14.626Z,11.02
2023-04-14T15:19:42.985Z,10.98
2023-04-14T15:22:10.612Z,10.93
2023-04-14T15:24:38.426Z,11.00
2023-04-14T15:27:06.220Z,11.10
2023-04-14T15:29:33.982Z,10.70
2023-04-14T15:32:01.662Z,11.57
2023-04-14T15:34:29.387Z,11.98
2023-04-14T15:36:56.975Z,10.45
2023-04-14T15:39:24.686Z,10.75
2023-04-14T15:41:52.187Z,10.15
2023-04-14T15:44:19.858Z,11.43
2023-04-14T15:46:47.165Z,10.65
2023-04-14T15:49:14.687Z,10.68
2023-04-14T15:51:42.483Z,11.70
2023-04-14T15:54:10.138Z,10.85
2023-04-14T15:56:37.380Z,10.40
2023-04-14T15:59:05.123Z,11.18
2023-04-14T16:01:32.436Z,10.35
2023-04-14T16:04:00.989Z,9.98
2023-04-14T16:06:28.675Z,9.82
2023-04-14T16:08:56.603Z,9.48
2023-04-14T16:11:24.212Z,10.75
2023-04-14T16:13:52.840Z,10.30
2023-04-14T16:16:20.194Z,9.88
2023-04-14T16:18:48.770Z,10.20
2023-04-14T16:21:16.467Z,10.15
2023-04-14T16:23:44.129Z,10.05
2023-04-14T16:26:12.910Z,10.25
2023-04-14T16:28:40.513Z,10.55
2023-04-14T16:31:08.340Z,10.43
2023-04-14T16:33:36.113Z,9.27
2023-04-14T16:36:07.802Z,10.45
2023-04-14T16:38:35.522Z,10.02
2023-04-14T16:41:03.468Z,9.43
2023-04-14T16:43:31.488Z,9.93
2023-04-14T16:46:03.239Z,11.65
2023-04-14T16:48:31.358Z,10.13
2023-04-14T16:51:06.832Z,10.75
2023-04-14T16:53:36.532Z,11.18
2023-04-14T16:56:05.650Z,12.27
2023-04-14T16:58:33.508Z,13.10
2023-04-14T17:01:01.390Z,12.05
2023-04-14T17:03:29.303Z,11.40
2023-04-14T17:05:56.772Z,12.02
2023-04-14T17:08:24.499Z,12.55
2023-04-14T17:10:51.829Z,12.25
2023-04-14T17:13:19.630Z,12.75
2023-04-14T17:15:55.681Z,13.10
2023-04-14T17:18:30.158Z,13.30
2023-04-14T17:20:57.372Z,13.25
2023-04-14T17:23:24.909Z,13.65
2023-04-14T17:25:53.299Z,12.65
2023-04-14T17:28:22.824Z,13.30
2023-04-14T17:30:51.125Z,13.30
2023-04-14T17:33:20.133Z,13.10
2023-04-14T17:35:47.686Z,13.27
2023-04-14T17:38:15.351Z,13.80
2023-04-14T17:40:42.767Z,12.88
2023-04-14T17:43:10.494Z,11.82
2023-04-14T17:45:40.176Z,12.60
2023-04-14T17:48:08.692Z,13.23
2023-04-14T17:50:36.162Z,12.77
2023-04-14T17:53:03.778Z,13.50
2023-04-14T17:55:31.338Z,14.20
2023-04-14T17:58:00.284Z,12.38
2023-04-14T18:00:29.357Z,13.13
2023-04-14T18:02:56.959Z,13.35
2023-04-14T18:05:24.293Z,12.73
2023-04-14T18:07:51.829Z,11.63
2023-04-14T18:10:19.438Z,12.20
2023-04-14T18:12:47.797Z,11.65
2023-04-14T18:15:17.827Z,12.55
2023-04-14T18:17:45.577Z,12.27
2023-04-14T18:20:13.774Z,11.75
2023-04-14T18:22:41.615Z,11.98
2023-04-14T18:25:09.761Z,13.77
2023-04-14T18:30:08.504Z,12.55
2023-04-14T18:32:36.520Z,11.20
2023-04-14T18:35:04.118Z,12.27
2023-04-14T18:37:31.758Z,11.50
2023-04-14T18:40:00.025Z,12.65
2023-04-14T18:42:30.244Z,14.02
2023-04-14T18:44:58.441Z,11.20
2023-04-14T18:47:26.301Z,12.13
2023-04-14T18:49:53.873Z,12.10
2023-04-14T18:52:22.222Z,13.88
2023-04-14T18:54:49.636Z,13.80
2023-04-14T18:57:17.938Z,12.23
2023-04-14T18:59:45.833Z,11.75
2023-04-14T19:02:13.961Z,9.70
2023-04-14T19:04:41.376Z,10.55
2023-04-14T19:07:09.128Z,9.30
2023-04-14T19:09:37.737Z,8.40
2023-04-14T19:12:06.836Z,9.63
2023-04-14T19:14:36.507Z,7.63
2023-04-14T19:17:04.742Z,7.38
2023-04-14T19:19:35.705Z,7.38
2023-04-14T19:22:03.840Z,7.20
2023-04-14T19:24:31.562Z,8.43
2023-04-14T19:26:59.318Z,7.88
2023-04-14T19:29:27.180Z,7.90
2023-04-14T19:31:54.794Z,7.03
2023-04-14T19:34:22.070Z,7.50
2023-04-14T19:36:49.658Z,7.35
2023-04-14T19:39:16.928Z,7.45
2023-04-14T19:41:44.541Z,7.03
2023-04-14T19:44:12.715Z,7.63
2023-04-14T19:46:42.309Z,7.95
2023-04-14T19:49:11.424Z,7.47
2023-04-14T19:51:39.119Z,6.95
2023-04-14T19:54:07.367Z,7.88
2023-04-14T19:56:35.134Z,7.90
2023-04-14T19:59:02.895Z,8.05
2023-04-14T20:01:31.518Z,8.82
2023-04-14T20:04:05.503Z,9.60
2023-04-14T20:06:40.349Z,9.35
2023-04-14T20:09:07.772Z,9.02
2023-04-14T20:11:35.366Z,8.27
2023-04-14T20:14:02.656Z,8.60
2023-04-14T20:16:30.676Z,9.15
2023-04-14T20:18:58.209Z,10.02
2023-04-14T20:21:25.938Z,10.25
2023-04-14T20:23:53.230Z,9.68
2023-04-14T20:26:21.589Z,9.70
2023-04-14T20:28:49.645Z,9.27
2023-04-14T20:31:17.272Z,9.45
2023-04-14T20:33:44.646Z,9.82
2023-04-14T20:36:12.593Z,11.13
2023-04-14T20:38:40.479Z,11.77
2023-04-14T20:41:08.029Z,12.13
2023-04-14T20:43:35.478Z,11.07
2023-04-14T20:46:04.034Z,11.50
2023-04-14T20:48:32.438Z,11.20
2023-04-14T20:51:01.453Z,12.05
2023-04-14T20:53:30.198Z,12.18
2023-04-14T20:55:57.873Z,12.02
2023-04-14T20:58:25.276Z,11.77
2023-04-14T21:00:52.975Z,13.30
2023-04-14T21:03:20.486Z,11.90
2023-04-14T21:05:48.272Z,11.88
2023-04-14T21:08:15.665Z,12.50
2023-04-14T21:11:14.893Z,11.30
2023-04-14T21:15:11.352Z,10.90
2023-04-14T21:16:18.429Z,11.98
2023-04-14T21:18:46.167Z,11.82
2023-04-14T21:21:14.023Z,11.40
2023-04-14T21:23:41.533Z,11.48
2023-04-14T21:26:09.234Z,12.07
2023-04-14T21:28:37.055Z,12.57
2023-04-14T21:31:04.963Z,10.95
2023-04-14T21:33:32.518Z,12.20
2023-04-14T21:36:02.834Z,11.52
2023-04-14T21:38:30.239Z,11.63
2023-04-14T21:40:57.945Z,11.50
2023-04-14T21:43:25.215Z,12.98
2023-04-14T21:45:53.699Z,12.18
2023-04-14T21:48:21.013Z,12.48
2023-04-14T21:50:49.361Z,12.80
2023-04-14T21:53:16.776Z,14.02
2023-04-14T21:55:44.404Z,13.52
2023-04-14T21:58:11.676Z,14.05
2023-04-14T22:00:40.991Z,13.52
2023-04-14T22:03:08.532Z,14.57
2023-04-14T22:05:36.374Z,13.32
2023-04-14T22:08:03.826Z,13.20
2023-04-14T22:10:34.220Z,13.02
2023-04-14T22:13:01.721Z,13.27
2023-04-14T22:15:29.582Z,13.13
2023-04-14T22:17:56.900Z,13.18
2023-04-14T22:20:26.561Z,13.63
2023-04-14T22:22:53.830Z,12.75
2023-04-14T22:25:21.461Z,13.32
2023-04-14T22:27:48.793Z,13.70
2023-04-14T22:30:16.584Z,13.00
2023-04-14T22:32:43.966Z,12.48
2023-04-14T22:35:11.623Z,13.63
2023-04-14T22:37:38.957Z,14.73
2023-04-14T22:40:07.528Z,14.05
2023-04-14T22:42:34.895Z,13.43
2023-04-14T22:45:02.467Z,13.02
2023-04-14T22:47:29.874Z,13.73
2023-04-14T22:49:57.456Z,14.15
2023-04-14T22:52:26.740Z,15.43
2023-04-14T22:54:54.534Z,15.57
2023-04-14T22:57:21.965Z,16.35
2023-04-14T22:59:49.646Z,15.93
2023-04-14T23:02:17.047Z,15.93
2023-04-14T23:04:45.012Z,18.92
2023-04-14T23:07:13.654Z,18.00
2023-04-14T23:09:41.359Z,18.20
2023-04-14T23:12:08.699Z,19.80
2023-04-14T23:14:36.752Z,18.13
2023-04-14T23:17:04.415Z,17.35
2023-04-14T23:19:33.776Z,17.95
2023-04-14T23:22:02.426Z,17.10
2023-04-14T23:24:30.028Z,18.38
2023-04-14T23:26:57.735Z,16.70
2023-04-14T23:29:25.408Z,15.38
2023-04-14T23:31:52.785Z,16.25
2023-04-14T23:34:20.661Z,14.90
2023-04-14T23:36:48.280Z,14.80
2023-04-14T23:39:15.884Z,14.30
2023-04-14T23:41:43.141Z,14.63
2023-04-14T23:44:10.881Z,15.10
2023-04-14T23:46:39.445Z,14.20
2023-04-14T23:49:24.395Z,13.95
2023-04-14T23:51:54.668Z,13.65
2023-04-14T23:54:22.204Z,14.50
2023-04-14T23:56:49.413Z,13.68
2023-04-14T23:59:17.173Z,13.13
